sensor_id;sensor_type;location;lat;lon;timestamp;temperature;humidity
54192;DHT22;40101;53.002;6.488;2023-08-01T00:00:39;16.20;99.90
54192;DHT22;40101;53.002;6.488;2023-08-01T00:03:05;16.30;99.90
54192;DHT22;40101;53.002;6.488;2023-08-01T00:05:31;16.20;99.90
54192;DHT22;40101;53.002;6.488;2023-08-01T00:07:56;16.20;99.90
54192;DHT22;40101;53.002;6.488;2023-08-01T00:10:22;16.40;99.90
54192;DHT22;40101;53.002;6.488;2023-08-01T00:12:47;16.20;99.90
54192;DHT22;40101;53.002;6.488;2023-08-01T00:15:13;16.20;99.90
54192;DHT22;40101;53.002;6.488;2023-08-01T00:17:39;16.10;99.90
54192;DHT22;40101;53.002;6.488;2023-08-01T00:20:06;16.20;99.90
54192;DHT22;40101;53.002;6.488;2023-08-01T00:22:32;16.20;99.90
54192;DHT22;40101;53.002;6.488;2023-08-01T00:24:57;16.20;99.90
54192;DHT22;40101;53.002;6.488;2023-08-01T00:27:24;16.30;99.90
54192;DHT22;40101;53.002;6.488;2023-08-01T00:29:49;16.30;99.90
54192;DHT22;40101;53.002;6.488;2023-08-01T00:32:15;16.40;99.90
54192;DHT22;40101;53.002;6.488;2023-08-01T00:34:41;16.30;99.90
54192;DHT22;40101;53.002;6.488;2023-08-01T00:37:06;16.20;99.90
54192;DHT22;40101;53.002;6.488;2023-08-01T00:39:32;16.20;99.90
54192;DHT22;40101;53.002;6.488;2023-08-01T00:41:59;15.90;99.90
54192;DHT22;40101;53.002;6.488;2023-08-01T00:44:24;15.80;99.90
54192;DHT22;40101;53.002;6.488;2023-08-01T00:46:50;15.70;99.90
54192;DHT22;40101;53.002;6.488;2023-08-01T00:49:16;15.60;99.90
54192;DHT22;40101;53.002;6.488;2023-08-01T00:51:44;15.60;99.90
54192;DHT22;40101;53.002;6.488;2023-08-01T00:54:10;15.70;99.90
54192;DHT22;40101;53.002;6.488;2023-08-01T00:56:36;15.50;99.90
54192;DHT22;40101;53.002;6.488;2023-08-01T00:59:02;15.60;99.90
54192;DHT22;40101;53.002;6.488;2023-08-01T01:01:28;15.60;99.90
54192;DHT22;40101;53.002;6.488;2023-08-01T01:03:53;15.80;99.90
54192;DHT22;40101;53.002;6.488;2023-08-01T01:06:57;15.50;99.90
54192;DHT22;40101;53.002;6.488;2023-08-01T01:09:19;15.70;99.90
54192;DHT22;40101;53.002;6.488;2023-08-01T01:11:45;15.60;99.90
54192;DHT22;40101;53.002;6.488;2023-08-01T01:14:11;15.60;99.90
54192;DHT22;40101;53.002;6.488;2023-08-01T01:16:37;15.60;99.90
54192;DHT22;40101;53.002;6.488;2023-08-01T01:19:06;15.50;99.90
54192;DHT22;40101;53.002;6.488;2023-08-01T01:21:37;15.80;99.90
54192;DHT22;40101;53.002;6.488;2023-08-01T01:24:07;15.50;99.90
54192;DHT22;40101;53.002;6.488;2023-08-01T01:26:33;15.30;99.90
54192;DHT22;40101;53.002;6.488;2023-08-01T01:29:01;15.50;99.90
54192;DHT22;40101;53.002;6.488;2023-08-01T01:31:31;15.50;99.90
54192;DHT22;40101;53.002;6.488;2023-08-01T01:33:58;15.50;99.90
54192;DHT22;40101;53.002;6.488;2023-08-01T01:36:24;15.70;99.90
54192;DHT22;40101;53.002;6.488;2023-08-01T01:38:49;15.60;99.90
54192;DHT22;40101;53.002;6.488;2023-08-01T01:41:15;15.60;99.90
54192;DHT22;40101;53.002;6.488;2023-08-01T01:43:41;15.60;99.90
54192;DHT22;40101;53.002;6.488;2023-08-01T01:46:06;15.60;99.90
54192;DHT22;40101;53.002;6.488;2023-08-01T01:48:32;15.80;99.90
54192;DHT22;40101;53.002;6.488;2023-08-01T01:50:58;15.90;99.90
54192;DHT22;40101;53.002;6.488;2023-08-01T01:53:23;15.60;99.90
54192;DHT22;40101;53.002;6.488;2023-08-01T01:55:49;15.80;99.90
54192;DHT22;40101;53.002;6.488;2023-08-01T01:58:15;15.60;99.90
54192;DHT22;40101;53.002;6.488;2023-08-01T02:00:40;15.60;99.90
54192;DHT22;40101;53.002;6.488;2023-08-01T02:03:06;15.70;99.90
54192;DHT22;40101;53.002;6.488;2023-08-01T02:05:36;15.60;99.90
54192;DHT22;40101;53.002;6.488;2023-08-01T02:08:02;15.50;99.90
54192;DHT22;40101;53.002;6.488;2023-08-01T02:10:30;15.50;99.90
54192;DHT22;40101;53.002;6.488;2023-08-01T02:12:56;15.50;99.90
54192;DHT22;40101;53.002;6.488;2023-08-01T02:15:21;15.70;99.90
54192;DHT22;40101;53.002;6.488;2023-08-01T02:17:47;15.40;99.90
54192;DHT22;40101;53.002;6.488;2023-08-01T02:20:13;15.50;99.90
54192;DHT22;40101;53.002;6.488;2023-08-01T02:22:38;15.30;99.90
54192;DHT22;40101;53.002;6.488;2023-08-01T02:25:04;15.30;99.90
54192;DHT22;40101;53.002;6.488;2023-08-01T02:27:30;15.20;99.90
54192;DHT22;40101;53.002;6.488;2023-08-01T02:29:56;15.40;99.90
54192;DHT22;40101;53.002;6.488;2023-08-01T02:32:21;15.40;99.90
54192;DHT22;40101;53.002;6.488;2023-08-01T02:34:47;15.10;99.90
54192;DHT22;40101;53.002;6.488;2023-08-01T02:37:13;15.20;99.90
54192;DHT22;40101;53.002;6.488;2023-08-01T02:39:38;15.00;99.90
54192;DHT22;40101;53.002;6.488;2023-08-01T02:42:04;14.90;99.90
54192;DHT22;40101;53.002;6.488;2023-08-01T02:44:30;14.90;99.90
54192;DHT22;40101;53.002;6.488;2023-08-01T02:46:55;14.90;99.90
54192;DHT22;40101;53.002;6.488;2023-08-01T02:49:21;14.90;99.90
54192;DHT22;40101;53.002;6.488;2023-08-01T02:51:47;14.90;99.90
54192;DHT22;40101;53.002;6.488;2023-08-01T02:54:12;15.20;99.90
54192;DHT22;40101;53.002;6.488;2023-08-01T02:56:38;15.00;99.90
54192;DHT22;40101;53.002;6.488;2023-08-01T02:59:07;15.20;99.90
54192;DHT22;40101;53.002;6.488;2023-08-01T03:01:34;15.00;99.90
54192;DHT22;40101;53.002;6.488;2023-08-01T03:04:02;15.10;99.90
54192;DHT22;40101;53.002;6.488;2023-08-01T03:06:28;15.00;99.90
54192;DHT22;40101;53.002;6.488;2023-08-01T03:08:54;15.00;99.90
54192;DHT22;40101;53.002;6.488;2023-08-01T03:11:23;15.20;99.90
54192;DHT22;40101;53.002;6.488;2023-08-01T03:13:48;15.10;99.90
54192;DHT22;40101;53.002;6.488;2023-08-01T03:16:14;15.30;99.90
54192;DHT22;40101;53.002;6.488;2023-08-01T03:18:40;15.20;99.90
54192;DHT22;40101;53.002;6.488;2023-08-01T03:21:11;15.20;99.90
54192;DHT22;40101;53.002;6.488;2023-08-01T03:23:36;15.20;99.90
54192;DHT22;40101;53.002;6.488;2023-08-01T03:26:02;15.30;99.90
54192;DHT22;40101;53.002;6.488;2023-08-01T03:28:28;15.30;99.90
54192;DHT22;40101;53.002;6.488;2023-08-01T03:30:54;15.20;99.90
54192;DHT22;40101;53.002;6.488;2023-08-01T03:33:20;15.40;99.90
54192;DHT22;40101;53.002;6.488;2023-08-01T03:35:46;15.20;99.90
54192;DHT22;40101;53.002;6.488;2023-08-01T03:38:12;15.40;99.90
54192;DHT22;40101;53.002;6.488;2023-08-01T03:40:38;15.10;99.90
54192;DHT22;40101;53.002;6.488;2023-08-01T03:43:04;15.10;99.90
54192;DHT22;40101;53.002;6.488;2023-08-01T03:45:30;15.30;99.90
54192;DHT22;40101;53.002;6.488;2023-08-01T03:47:56;15.40;99.90
54192;DHT22;40101;53.002;6.488;2023-08-01T03:50:25;15.40;99.90
54192;DHT22;40101;53.002;6.488;2023-08-01T03:52:51;15.20;99.90
54192;DHT22;40101;53.002;6.488;2023-08-01T03:55:17;15.10;99.90
54192;DHT22;40101;53.002;6.488;2023-08-01T03:57:42;15.10;99.90
54192;DHT22;40101;53.002;6.488;2023-08-01T04:00:09;15.00;99.90
54192;DHT22;40101;53.002;6.488;2023-08-01T04:02:44;15.00;99.90
54192;DHT22;40101;53.002;6.488;2023-08-01T04:05:09;15.00;99.90
54192;DHT22;40101;53.002;6.488;2023-08-01T04:07:36;15.30;99.90
54192;DHT22;40101;53.002;6.488;2023-08-01T04:10:02;14.90;99.90
54192;DHT22;40101;53.002;6.488;2023-08-01T04:12:29;14.90;99.90
54192;DHT22;40101;53.002;6.488;2023-08-01T04:14:55;14.90;99.90
54192;DHT22;40101;53.002;6.488;2023-08-01T04:17:21;14.90;99.90
54192;DHT22;40101;53.002;6.488;2023-08-01T04:19:46;14.90;99.90
54192;DHT22;40101;53.002;6.488;2023-08-01T04:22:12;14.90;99.90
54192;DHT22;40101;53.002;6.488;2023-08-01T04:24:37;14.90;99.90
54192;DHT22;40101;53.002;6.488;2023-08-01T04:27:03;14.90;99.90
54192;DHT22;40101;53.002;6.488;2023-08-01T04:29:29;14.90;99.90
54192;DHT22;40101;53.002;6.488;2023-08-01T04:31:56;15.10;99.90
54192;DHT22;40101;53.002;6.488;2023-08-01T04:34:22;14.90;99.90
54192;DHT22;40101;53.002;6.488;2023-08-01T04:36:48;14.90;99.90
54192;DHT22;40101;53.002;6.488;2023-08-01T04:39:14;14.70;99.90
54192;DHT22;40101;53.002;6.488;2023-08-01T04:41:39;14.70;99.90
54192;DHT22;40101;53.002;6.488;2023-08-01T04:44:05;14.90;99.90
54192;DHT22;40101;53.002;6.488;2023-08-01T04:46:32;14.70;99.90
54192;DHT22;40101;53.002;6.488;2023-08-01T04:48:57;14.90;99.90
54192;DHT22;40101;53.002;6.488;2023-08-01T04:51:24;14.90;99.90
54192;DHT22;40101;53.002;6.488;2023-08-01T04:53:50;14.60;99.90
54192;DHT22;40101;53.002;6.488;2023-08-01T04:56:15;14.70;99.90
54192;DHT22;40101;53.002;6.488;2023-08-01T04:58:41;14.90;99.90
54192;DHT22;40101;53.002;6.488;2023-08-01T05:01:07;14.90;99.90
54192;DHT22;40101;53.002;6.488;2023-08-01T05:03:32;14.70;99.90
54192;DHT22;40101;53.002;6.488;2023-08-01T05:05:58;14.90;99.90
54192;DHT22;40101;53.002;6.488;2023-08-01T05:08:24;14.80;99.90
54192;DHT22;40101;53.002;6.488;2023-08-01T05:10:49;15.10;99.90
54192;DHT22;40101;53.002;6.488;2023-08-01T05:13:15;14.90;99.90
54192;DHT22;40101;53.002;6.488;2023-08-01T05:15:44;14.90;99.90
54192;DHT22;40101;53.002;6.488;2023-08-01T05:18:13;14.90;99.90
54192;DHT22;40101;53.002;6.488;2023-08-01T05:20:39;15.20;99.90
54192;DHT22;40101;53.002;6.488;2023-08-01T05:23:04;14.90;99.90
54192;DHT22;40101;53.002;6.488;2023-08-01T05:25:30;15.10;99.90
54192;DHT22;40101;53.002;6.488;2023-08-01T05:27:56;15.20;99.90
54192;DHT22;40101;53.002;6.488;2023-08-01T05:30:21;15.40;99.90
54192;DHT22;40101;53.002;6.488;2023-08-01T05:32:47;15.70;99.90
54192;DHT22;40101;53.002;6.488;2023-08-01T05:35:13;16.10;99.90
54192;DHT22;40101;53.002;6.488;2023-08-01T05:37:38;16.30;99.90
54192;DHT22;40101;53.002;6.488;2023-08-01T05:40:05;16.40;99.90
54192;DHT22;40101;53.002;6.488;2023-08-01T05:42:30;16.10;99.90
54192;DHT22;40101;53.002;6.488;2023-08-01T05:44:56;16.20;99.90
54192;DHT22;40101;53.002;6.488;2023-08-01T05:47:22;15.90;99.90
54192;DHT22;40101;53.002;6.488;2023-08-01T05:49:50;15.80;99.90
54192;DHT22;40101;53.002;6.488;2023-08-01T05:52:16;15.80;99.90
54192;DHT22;40101;53.002;6.488;2023-08-01T05:54:41;15.80;99.90
54192;DHT22;40101;53.002;6.488;2023-08-01T05:57:07;15.90;99.90
54192;DHT22;40101;53.002;6.488;2023-08-01T05:59:33;16.20;99.90
54192;DHT22;40101;53.002;6.488;2023-08-01T06:01:59;15.90;99.90
54192;DHT22;40101;53.002;6.488;2023-08-01T06:04:25;16.10;99.90
54192;DHT22;40101;53.002;6.488;2023-08-01T06:06:50;15.90;99.90
54192;DHT22;40101;53.002;6.488;2023-08-01T06:09:18;16.00;99.90
54192;DHT22;40101;53.002;6.488;2023-08-01T06:11:47;16.00;99.90
54192;DHT22;40101;53.002;6.488;2023-08-01T06:14:16;16.00;99.90
54192;DHT22;40101;53.002;6.488;2023-08-01T06:16:42;15.90;99.90
54192;DHT22;40101;53.002;6.488;2023-08-01T06:19:08;15.90;99.90
54192;DHT22;40101;53.002;6.488;2023-08-01T06:21:33;16.20;99.90
54192;DHT22;40101;53.002;6.488;2023-08-01T06:23:59;15.80;99.90
54192;DHT22;40101;53.002;6.488;2023-08-01T06:26:28;16.00;99.90
54192;DHT22;40101;53.002;6.488;2023-08-01T06:29:02;15.70;99.90
54192;DHT22;40101;53.002;6.488;2023-08-01T06:31:30;15.90;99.90
54192;DHT22;40101;53.002;6.488;2023-08-01T06:33:56;15.80;99.90
54192;DHT22;40101;53.002;6.488;2023-08-01T06:36:22;15.90;99.90
54192;DHT22;40101;53.002;6.488;2023-08-01T06:38:55;15.90;99.90
54192;DHT22;40101;53.002;6.488;2023-08-01T06:41:23;16.00;99.90
54192;DHT22;40101;53.002;6.488;2023-08-01T06:43:48;16.10;99.90
54192;DHT22;40101;53.002;6.488;2023-08-01T06:46:14;15.90;99.90
54192;DHT22;40101;53.002;6.488;2023-08-01T06:48:42;16.10;99.90
54192;DHT22;40101;53.002;6.488;2023-08-01T06:51:08;16.00;99.90
54192;DHT22;40101;53.002;6.488;2023-08-01T06:53:34;16.20;99.90
54192;DHT22;40101;53.002;6.488;2023-08-01T06:56:03;16.40;99.90
54192;DHT22;40101;53.002;6.488;2023-08-01T06:58:31;16.60;99.90
54192;DHT22;40101;53.002;6.488;2023-08-01T07:00:59;16.70;99.90
54192;DHT22;40101;53.002;6.488;2023-08-01T07:03:45;16.80;99.90
54192;DHT22;40101;53.002;6.488;2023-08-01T07:06:11;16.70;99.90
54192;DHT22;40101;53.002;6.488;2023-08-01T07:08:47;17.20;99.90
54192;DHT22;40101;53.002;6.488;2023-08-01T07:11:13;17.00;99.90
54192;DHT22;40101;53.002;6.488;2023-08-01T07:13:38;16.90;99.90
54192;DHT22;40101;53.002;6.488;2023-08-01T07:16:04;17.10;99.90
54192;DHT22;40101;53.002;6.488;2023-08-01T07:18:30;16.80;99.90
54192;DHT22;40101;53.002;6.488;2023-08-01T07:21:03;16.70;99.90
54192;DHT22;40101;53.002;6.488;2023-08-01T07:23:34;16.70;99.90
54192;DHT22;40101;53.002;6.488;2023-08-01T07:26:26;16.70;99.90
54192;DHT22;40101;53.002;6.488;2023-08-01T07:29:07;16.60;99.90
54192;DHT22;40101;53.002;6.488;2023-08-01T07:31:34;17.00;99.90
54192;DHT22;40101;53.002;6.488;2023-08-01T07:34:12;16.70;99.90
54192;DHT22;40101;53.002;6.488;2023-08-01T07:36:39;16.90;99.90
54192;DHT22;40101;53.002;6.488;2023-08-01T07:42:02;16.90;99.90
54192;DHT22;40101;53.002;6.488;2023-08-01T07:44:43;16.70;99.90
54192;DHT22;40101;53.002;6.488;2023-08-01T07:47:18;16.70;99.90
54192;DHT22;40101;53.002;6.488;2023-08-01T07:49:55;16.60;99.90
54192;DHT22;40101;53.002;6.488;2023-08-01T07:52:24;17.00;99.90
54192;DHT22;40101;53.002;6.488;2023-08-01T07:54:50;16.70;99.90
54192;DHT22;40101;53.002;6.488;2023-08-01T07:57:24;16.80;99.90
54192;DHT22;40101;53.002;6.488;2023-08-01T08:00:13;16.70;99.90
54192;DHT22;40101;53.002;6.488;2023-08-01T08:02:45;16.70;99.90
54192;DHT22;40101;53.002;6.488;2023-08-01T08:05:19;16.70;99.90
54192;DHT22;40101;53.002;6.488;2023-08-01T08:07:48;16.90;99.90
54192;DHT22;40101;53.002;6.488;2023-08-01T08:10:13;16.70;99.90
54192;DHT22;40101;53.002;6.488;2023-08-01T08:12:43;16.60;99.90
54192;DHT22;40101;53.002;6.488;2023-08-01T08:15:09;16.50;99.90
54192;DHT22;40101;53.002;6.488;2023-08-01T08:17:41;16.60;99.90
54192;DHT22;40101;53.002;6.488;2023-08-01T08:20:20;16.40;99.90
54192;DHT22;40101;53.002;6.488;2023-08-01T08:22:58;16.30;99.90
54192;DHT22;40101;53.002;6.488;2023-08-01T08:25:26;16.20;99.90
54192;DHT22;40101;53.002;6.488;2023-08-01T08:27:52;16.20;99.90
54192;DHT22;40101;53.002;6.488;2023-08-01T08:30:24;16.30;99.90
54192;DHT22;40101;53.002;6.488;2023-08-01T08:32:53;16.40;99.90
54192;DHT22;40101;53.002;6.488;2023-08-01T08:35:19;16.20;99.90
54192;DHT22;40101;53.002;6.488;2023-08-01T08:38:03;16.20;99.90
54192;DHT22;40101;53.002;6.488;2023-08-01T08:41:15;16.20;99.90
54192;DHT22;40101;53.002;6.488;2023-08-01T08:44:17;16.30;99.90
54192;DHT22;40101;53.002;6.488;2023-08-01T08:46:45;16.30;99.90
54192;DHT22;40101;53.002;6.488;2023-08-01T08:49:24;16.30;99.90
54192;DHT22;40101;53.002;6.488;2023-08-01T08:52:17;16.30;99.90
54192;DHT22;40101;53.002;6.488;2023-08-01T08:54:44;16.40;99.90
54192;DHT22;40101;53.002;6.488;2023-08-01T09:00:38;16.50;99.90
54192;DHT22;40101;53.002;6.488;2023-08-01T09:03:07;16.60;99.90
54192;DHT22;40101;53.002;6.488;2023-08-01T09:05:48;16.90;99.90
54192;DHT22;40101;53.002;6.488;2023-08-01T09:09:13;17.00;99.90
54192;DHT22;40101;53.002;6.488;2023-08-01T09:11:51;17.00;99.90
54192;DHT22;40101;53.002;6.488;2023-08-01T09:14:43;16.90;99.90
54192;DHT22;40101;53.002;6.488;2023-08-01T09:17:12;16.80;99.90
54192;DHT22;40101;53.002;6.488;2023-08-01T09:20:08;16.70;99.90
54192;DHT22;40101;53.002;6.488;2023-08-01T09:22:46;16.70;99.90
54192;DHT22;40101;53.002;6.488;2023-08-01T09:25:13;16.70;99.90
54192;DHT22;40101;53.002;6.488;2023-08-01T09:27:53;16.70;99.90
54192;DHT22;40101;53.002;6.488;2023-08-01T09:30:44;16.70;99.90
54192;DHT22;40101;53.002;6.488;2023-08-01T09:33:10;16.90;99.90
54192;DHT22;40101;53.002;6.488;2023-08-01T09:35:38;16.70;99.90
54192;DHT22;40101;53.002;6.488;2023-08-01T09:38:04;16.90;99.90
54192;DHT22;40101;53.002;6.488;2023-08-01T09:40:39;17.10;99.90
54192;DHT22;40101;53.002;6.488;2023-08-01T09:43:05;17.30;99.90
54192;DHT22;40101;53.002;6.488;2023-08-01T09:45:31;17.30;99.90
54192;DHT22;40101;53.002;6.488;2023-08-01T09:47:57;17.20;99.90
54192;DHT22;40101;53.002;6.488;2023-08-01T09:50:27;17.30;99.90
54192;DHT22;40101;53.002;6.488;2023-08-01T09:52:55;17.30;99.90
54192;DHT22;40101;53.002;6.488;2023-08-01T09:55:31;18.20;99.90
54192;DHT22;40101;53.002;6.488;2023-08-01T09:57:58;18.80;99.90
54192;DHT22;40101;53.002;6.488;2023-08-01T10:00:26;19.20;99.90
54192;DHT22;40101;53.002;6.488;2023-08-01T10:02:52;19.70;99.90
54192;DHT22;40101;53.002;6.488;2023-08-01T10:05:19;19.60;99.90
54192;DHT22;40101;53.002;6.488;2023-08-01T10:07:47;19.50;99.90
54192;DHT22;40101;53.002;6.488;2023-08-01T10:10:15;19.20;99.90
54192;DHT22;40101;53.002;6.488;2023-08-01T10:12:45;19.00;99.90
54192;DHT22;40101;53.002;6.488;2023-08-01T10:15:15;19.00;99.90
54192;DHT22;40101;53.002;6.488;2023-08-01T10:17:41;18.90;99.90
54192;DHT22;40101;53.002;6.488;2023-08-01T10:20:07;19.20;99.90
54192;DHT22;40101;53.002;6.488;2023-08-01T10:22:34;19.80;99.90
54192;DHT22;40101;53.002;6.488;2023-08-01T10:25:00;20.20;99.90
54192;DHT22;40101;53.002;6.488;2023-08-01T10:27:26;20.60;99.90
54192;DHT22;40101;53.002;6.488;2023-08-01T10:29:59;20.20;99.90
54192;DHT22;40101;53.002;6.488;2023-08-01T10:32:43;19.80;99.90
54192;DHT22;40101;53.002;6.488;2023-08-01T10:35:09;19.40;99.90
54192;DHT22;40101;53.002;6.488;2023-08-01T10:37:45;19.00;99.90
54192;DHT22;40101;53.002;6.488;2023-08-01T10:40:12;18.70;99.90
54192;DHT22;40101;53.002;6.488;2023-08-01T10:42:45;18.60;99.90
54192;DHT22;40101;53.002;6.488;2023-08-01T10:45:24;18.50;99.90
54192;DHT22;40101;53.002;6.488;2023-08-01T10:47:51;19.00;99.90
54192;DHT22;40101;53.002;6.488;2023-08-01T10:50:17;18.70;99.90
54192;DHT22;40101;53.002;6.488;2023-08-01T10:52:43;18.80;99.90
54192;DHT22;40101;53.002;6.488;2023-08-01T10:55:10;19.40;99.90
54192;DHT22;40101;53.002;6.488;2023-08-01T10:57:38;19.50;99.90
54192;DHT22;40101;53.002;6.488;2023-08-01T11:00:05;19.70;99.90
54192;DHT22;40101;53.002;6.488;2023-08-01T11:02:35;19.90;99.90
54192;DHT22;40101;53.002;6.488;2023-08-01T11:05:03;20.20;99.90
54192;DHT22;40101;53.002;6.488;2023-08-01T11:07:30;20.00;99.90
54192;DHT22;40101;53.002;6.488;2023-08-01T11:10:12;20.00;99.90
54192;DHT22;40101;53.002;6.488;2023-08-01T11:12:42;20.10;99.90
54192;DHT22;40101;53.002;6.488;2023-08-01T11:15:10;19.90;99.90
54192;DHT22;40101;53.002;6.488;2023-08-01T11:17:37;19.80;99.90
54192;DHT22;40101;53.002;6.488;2023-08-01T11:20:12;19.40;99.90
54192;DHT22;40101;53.002;6.488;2023-08-01T11:22:55;19.30;99.90
54192;DHT22;40101;53.002;6.488;2023-08-01T11:28:06;19.60;99.90
54192;DHT22;40101;53.002;6.488;2023-08-01T11:30:32;20.10;99.90
54192;DHT22;40101;53.002;6.488;2023-08-01T11:32:58;20.00;99.90
54192;DHT22;40101;53.002;6.488;2023-08-01T11:35:24;20.50;99.90
54192;DHT22;40101;53.002;6.488;2023-08-01T11:37:50;20.40;99.90
54192;DHT22;40101;53.002;6.488;2023-08-01T11:40:17;20.20;99.90
54192;DHT22;40101;53.002;6.488;2023-08-01T11:42:43;19.70;99.90
54192;DHT22;40101;53.002;6.488;2023-08-01T11:45:12;19.50;99.90
54192;DHT22;40101;53.002;6.488;2023-08-01T11:47:45;19.30;99.90
54192;DHT22;40101;53.002;6.488;2023-08-01T11:50:11;19.30;99.90
54192;DHT22;40101;53.002;6.488;2023-08-01T11:52:37;19.50;99.90
54192;DHT22;40101;53.002;6.488;2023-08-01T11:55:02;19.80;99.90
54192;DHT22;40101;53.002;6.488;2023-08-01T11:57:28;19.80;99.90
54192;DHT22;40101;53.002;6.488;2023-08-01T11:59:55;19.70;99.90
54192;DHT22;40101;53.002;6.488;2023-08-01T12:02:25;19.60;99.90
54192;DHT22;40101;53.002;6.488;2023-08-01T12:04:52;19.70;99.90
54192;DHT22;40101;53.002;6.488;2023-08-01T12:07:18;19.90;99.90
54192;DHT22;40101;53.002;6.488;2023-08-01T12:10:00;20.20;99.90
54192;DHT22;40101;53.002;6.488;2023-08-01T12:12:27;20.30;99.90
54192;DHT22;40101;53.002;6.488;2023-08-01T12:14:53;20.40;99.90
54192;DHT22;40101;53.002;6.488;2023-08-01T12:17:20;20.40;99.90
54192;DHT22;40101;53.002;6.488;2023-08-01T12:19:45;20.50;99.90
54192;DHT22;40101;53.002;6.488;2023-08-01T12:22:12;20.50;99.90
54192;DHT22;40101;53.002;6.488;2023-08-01T12:24:38;20.30;99.90
54192;DHT22;40101;53.002;6.488;2023-08-01T12:27:07;20.40;99.90
54192;DHT22;40101;53.002;6.488;2023-08-01T12:29:33;20.20;99.90
54192;DHT22;40101;53.002;6.488;2023-08-01T12:31:59;20.40;99.90
54192;DHT22;40101;53.002;6.488;2023-08-01T12:34:25;20.30;99.90
54192;DHT22;40101;53.002;6.488;2023-08-01T12:36:50;20.10;99.90
54192;DHT22;40101;53.002;6.488;2023-08-01T12:39:16;19.70;99.90
54192;DHT22;40101;53.002;6.488;2023-08-01T12:41:41;19.80;99.90
54192;DHT22;40101;53.002;6.488;2023-08-01T12:44:07;19.50;99.90
54192;DHT22;40101;53.002;6.488;2023-08-01T12:46:33;19.90;99.90
54192;DHT22;40101;53.002;6.488;2023-08-01T12:48:58;19.80;99.90
54192;DHT22;40101;53.002;6.488;2023-08-01T12:51:24;19.90;99.90
54192;DHT22;40101;53.002;6.488;2023-08-01T12:53:50;20.10;99.90
54192;DHT22;40101;53.002;6.488;2023-08-01T12:56:16;20.40;99.90
54192;DHT22;40101;53.002;6.488;2023-08-01T12:58:41;20.60;99.90
54192;DHT22;40101;53.002;6.488;2023-08-01T13:01:07;20.80;99.90
54192;DHT22;40101;53.002;6.488;2023-08-01T13:03:33;20.80;99.90
54192;DHT22;40101;53.002;6.488;2023-08-01T13:05:59;20.70;99.90
54192;DHT22;40101;53.002;6.488;2023-08-01T13:08:24;20.50;99.90
54192;DHT22;40101;53.002;6.488;2023-08-01T13:10:50;20.40;99.90
54192;DHT22;40101;53.002;6.488;2023-08-01T13:13:16;20.40;99.90
54192;DHT22;40101;53.002;6.488;2023-08-01T13:15:42;20.40;99.90
54192;DHT22;40101;53.002;6.488;2023-08-01T13:18:08;20.40;99.90
54192;DHT22;40101;53.002;6.488;2023-08-01T13:20:34;20.30;99.90
54192;DHT22;40101;53.002;6.488;2023-08-01T13:23:02;20.20;99.90
54192;DHT22;40101;53.002;6.488;2023-08-01T13:25:28;20.10;99.90
54192;DHT22;40101;53.002;6.488;2023-08-01T13:27:54;20.10;99.90
54192;DHT22;40101;53.002;6.488;2023-08-01T13:30:20;20.10;99.90
54192;DHT22;40101;53.002;6.488;2023-08-01T13:32:46;19.90;99.90
54192;DHT22;40101;53.002;6.488;2023-08-01T13:35:14;19.70;99.90
54192;DHT22;40101;53.002;6.488;2023-08-01T13:37:40;19.80;99.90
54192;DHT22;40101;53.002;6.488;2023-08-01T13:40:06;20.00;99.90
54192;DHT22;40101;53.002;6.488;2023-08-01T13:42:32;20.10;99.90
54192;DHT22;40101;53.002;6.488;2023-08-01T13:44:59;20.10;99.90
54192;DHT22;40101;53.002;6.488;2023-08-01T13:47:24;19.90;99.90
54192;DHT22;40101;53.002;6.488;2023-08-01T13:49:50;19.70;99.90
54192;DHT22;40101;53.002;6.488;2023-08-01T13:52:16;19.50;99.90
54192;DHT22;40101;53.002;6.488;2023-08-01T13:54:42;18.90;99.90
54192;DHT22;40101;53.002;6.488;2023-08-01T13:57:07;18.80;99.90
54192;DHT22;40101;53.002;6.488;2023-08-01T13:59:33;19.00;99.90
54192;DHT22;40101;53.002;6.488;2023-08-01T14:01:59;18.70;99.90
54192;DHT22;40101;53.002;6.488;2023-08-01T14:04:24;18.80;99.90
54192;DHT22;40101;53.002;6.488;2023-08-01T14:06:50;18.80;99.90
54192;DHT22;40101;53.002;6.488;2023-08-01T14:09:16;19.20;99.90
54192;DHT22;40101;53.002;6.488;2023-08-01T14:11:41;18.90;99.90
54192;DHT22;40101;53.002;6.488;2023-08-01T14:14:07;19.00;99.90
54192;DHT22;40101;53.002;6.488;2023-08-01T14:16:33;19.20;99.90
54192;DHT22;40101;53.002;6.488;2023-08-01T14:19:02;19.50;99.90
54192;DHT22;40101;53.002;6.488;2023-08-01T14:21:29;19.50;99.90
54192;DHT22;40101;53.002;6.488;2023-08-01T14:23:55;19.70;99.90
54192;DHT22;40101;53.002;6.488;2023-08-01T14:26:20;19.70;99.90
54192;DHT22;40101;53.002;6.488;2023-08-01T14:28:46;19.90;99.90
54192;DHT22;40101;53.002;6.488;2023-08-01T14:31:12;19.80;99.90
54192;DHT22;40101;53.002;6.488;2023-08-01T14:33:37;19.80;99.90
54192;DHT22;40101;53.002;6.488;2023-08-01T14:36:08;19.60;99.90
54192;DHT22;40101;53.002;6.488;2023-08-01T14:38:34;19.60;99.90
54192;DHT22;40101;53.002;6.488;2023-08-01T14:41:02;19.60;99.90
54192;DHT22;40101;53.002;6.488;2023-08-01T14:43:30;19.70;99.90
54192;DHT22;40101;53.002;6.488;2023-08-01T14:45:56;19.80;99.90
54192;DHT22;40101;53.002;6.488;2023-08-01T14:48:22;20.00;99.90
54192;DHT22;40101;53.002;6.488;2023-08-01T14:50:48;19.50;99.90
54192;DHT22;40101;53.002;6.488;2023-08-01T14:53:14;19.70;99.90
54192;DHT22;40101;53.002;6.488;2023-08-01T14:55:39;19.30;99.90
54192;DHT22;40101;53.002;6.488;2023-08-01T14:58:05;19.40;99.90
54192;DHT22;40101;53.002;6.488;2023-08-01T15:00:37;19.50;99.90
54192;DHT22;40101;53.002;6.488;2023-08-01T15:03:02;19.50;99.90
54192;DHT22;40101;53.002;6.488;2023-08-01T15:05:29;19.50;99.90
54192;DHT22;40101;53.002;6.488;2023-08-01T15:07:54;19.40;99.90
54192;DHT22;40101;53.002;6.488;2023-08-01T15:10:20;19.30;99.90
54192;DHT22;40101;53.002;6.488;2023-08-01T15:12:46;19.10;99.90
54192;DHT22;40101;53.002;6.488;2023-08-01T15:15:12;18.80;99.90
54192;DHT22;40101;53.002;6.488;2023-08-01T15:17:37;18.70;99.90
54192;DHT22;40101;53.002;6.488;2023-08-01T15:20:06;18.50;99.90
54192;DHT22;40101;53.002;6.488;2023-08-01T15:22:31;18.40;99.90
54192;DHT22;40101;53.002;6.488;2023-08-01T15:24:57;18.50;99.90
54192;DHT22;40101;53.002;6.488;2023-08-01T15:27:23;18.40;99.90
54192;DHT22;40101;53.002;6.488;2023-08-01T15:29:48;18.50;99.90
54192;DHT22;40101;53.002;6.488;2023-08-01T15:32:14;18.50;99.90
54192;DHT22;40101;53.002;6.488;2023-08-01T15:34:40;18.70;99.90
54192;DHT22;40101;53.002;6.488;2023-08-01T15:37:09;18.60;99.90
54192;DHT22;40101;53.002;6.488;2023-08-01T15:39:35;18.50;99.90
54192;DHT22;40101;53.002;6.488;2023-08-01T15:42:01;18.40;99.90
54192;DHT22;40101;53.002;6.488;2023-08-01T15:44:27;18.40;99.90